Hauptseite
METAR-TAF:

METAR-TAF

Flughäfen :

Flughafen Gran Canaria

Gran Canaria, Spanien

Breite: 27-56N, Länge: 015-23W, Höhe: 23 m

Beobachtung

Neuester Wetterbericht von vor 33 Minuten, um 20:30 UTC
Wind 13 kt aus Nord
Temperatur 19°C
Luftfeuchtigkeit 68%
Luftdruck 1016 hPa
Sichtweite 10 km oder mehr
Leicht bewölkt in der Höhe von 2500 ft
Aufgelockert bewölkt in der Höhe von 5000 ft

METAR: GCLP 202030Z 36013KT 9999 FEW025 SCT050 19/13 Q1016 NOSIG

Zeit: 22:03 (21:03 UTC)

Prognose

Neuester Wetterbericht von vor 1 Stunde und 3 Minuten, um 20:00 UTC
Gültige Prognose vom 20 um 21 UTC bis 21 um 21 UTC
Wind 18 kt aus Nord
Sichtweite 10 km oder mehr
Aufgelockert bewölkt in der Höhe von 3500 ft
Wahrscheinlichkeit 30% :
Zeitweise
vom 20 um 21 UTC bis 20 um 23 UTC
Wind 15 kt aus Nord, Böen bis zu 25 kt

TAF: GCLP 202000Z 2021/2121 36018KT 9999 SCT035 TX22/2114Z TN17/2105Z PROB30 TEMPO 2021/2023 35015G25KT

Wetterbeobachtungen und Prognosen von mehr als 4000 Flughäfen (METAR und TAF Bericht).

Die verfügbaren Stationen werden durch gelbe und rote Markierungen auf der Karte dargestellt.

Führen Sie die Maus auf sie, um den Namen der Station zu sehen.

Darauf klicken, um die Beobachtung von Wetterbeobachtungen und Prognosen zu sehen.

Um die Karte zu ändern : klicken Sie auf den grünen Tasten mit einem schwarzen Kreuz Zum Vergrößern, auf den grünen Button mit einem Gedankenstrich zu verkleinern, oder auf die grünen Pfeile für benachbarte Karten.


METAR-TAF: